Terminal Aerodrome Forecast
Issued by NWS

Home | Current Version | Previous Version | Text Only | Print | Product List | Glossary On
Versions: 1 2 3 4 5 6 7 8 9 10 11 12 13 14 15 16 17 18 19 20 21
000
FTUS45 KGJT 292320
TAFEGE
TAF
KEGE 292320Z 3000/3024 27005KT P6SM BKN015 OVC020
     FM300300 27005KT P6SM VCSH OVC020
     FM301100 VRB03KT P6SM VCSH OVC015
     FM302100 01004KT P6SM BKN035
      AMD LTD TO CLD VIS AND WIND 3001/3013=

USA.gov is the U.S. government's official web portal to all federal, state and local government web resources and services.